Flight Track Log - Related Links

Times and Time Zones

All times are in EDT time to prevent confusion due to time zone crossing. See the CES5850 flight status page for this flight to view local times or setup timezone preferences in your user account.

Time Position Orientation Groundspeed Altitude Reporting Facility
EDT Latitude Longitude Course Direction KTS MPH feet Rate Location/Type
Thu 09:35:00 AM 24.1941 102.2865 213° Southwest  Level Estimated
Thu 09:36:00 AM 24.1292 102.2410 213° Southwest  Level Estimated
Thu 09:37:00 AM 24.0642 102.1955 213° Southwest  Level Estimated
Thu 09:38:00 AM 23.9992 102.1500 213° Southwest  Level Estimated
Thu 09:39:00 AM 23.9342 102.1046 213° Southwest  Level Estimated
Thu 09:40:00 AM 23.8692 102.0592 213° Southwest  Level Estimated
Thu 09:41:00 AM 23.8042 102.0139 213° Southwest  Level Estimated
Thu 09:42:00 AM 23.7392 101.9686 213° Southwest  Level Estimated
Thu 09:43:00 AM 23.6741 101.9234 212° Southwest  Level Estimated
Thu 09:44:00 AM 23.6091 101.8782 212° Southwest  Level Estimated
Thu 09:45:00 AM 23.5440 101.8331 212° Southwest  Level Estimated
Thu 09:46:00 AM 23.4789 101.7880 212° Southwest  Level Estimated
Thu 09:47:00 AM 23.4138 101.7430 212° Southwest  Level Estimated
Thu 09:48:00 AM 23.3487 101.6979 212° Southwest  Level Estimated
Thu 09:49:00 AM 23.2836 101.6530 212° Southwest  Level Estimated
Thu 09:50:00 AM 23.2185 101.6081 212° Southwest  Level Estimated
Thu 09:51:00 AM 23.1533 101.5632 212° Southwest  Level Estimated
Thu 09:52:00 AM 23.0882 101.5184 212° Southwest  Level Estimated
Thu 09:53:00 AM 23.0230 101.4736 212° Southwest  Level Estimated
Thu 09:54:00 AM 22.9578 101.4288 212° Southwest  Level Estimated
Thu 09:55:00 AM 22.8926 101.3841 212° Southwest  Level Estimated
Thu 09:56:00 AM 22.8274 101.3395 212° Southwest  Level Estimated
Thu 09:57:00 AM 22.7622 101.2949 212° Southwest  Level Estimated
Thu 09:58:00 AM 22.6970 101.2503 212° Southwest  Level Estimated
Thu 09:59:00 AM 22.6317 101.2057 212° Southwest  Level Estimated
Thu 10:00:00 AM 22.5664 101.1613 212° Southwest  Level Estimated
Thu 10:01:00 AM 22.5012 101.1168 212° Southwest  Level Estimated
Thu 10:02:00 AM 22.4359 101.0724 212° Southwest  Level Estimated
Thu 10:03:00 AM 22.3706 101.0281 212° Southwest  Level Estimated
Thu 10:04:00 AM 22.3053 100.9837 212° Southwest  Level Estimated
Thu 10:05:00 AM 22.2400 100.9395 212° Southwest  Level Estimated
Thu 10:06:00 AM 22.1746 100.8952 212° Southwest  Level Estimated
Thu 10:07:00 AM 22.1093 100.8510 212° Southwest  Level Estimated
Thu 10:08:00 AM 22.0439 100.8069 212° Southwest  Level Estimated
Thu 10:09:00 AM 21.9786 100.7627 212° Southwest  Level Estimated
Thu 10:10:00 AM 21.9739 100.7596 212° Southwest  Level Estimated
Thu 10:11:00 AM 21.9739 100.7596 13° North  Level Estimated
Thu 10:12:00 AM 21.9739 100.7596 13° North  Level Estimated
Thu 10:13:00 AM 21.9739 100.7596 13° North  Level Estimated
Thu 10:14:00 AM 21.9739 100.7596 13° North  Level Estimated
Thu 10:15:00 AM 21.9739 100.7596 13° North  Level Estimated
Thu 10:16:00 AM 21.9739 100.7596 13° North  Level Estimated
Thu 10:17:00 AM 21.9739 100.7596 13° North  Level Estimated
Thu 10:18:00 AM 21.9739 100.7596 13° North  Level Estimated
Thu 10:19:00 AM 21.9739 100.7596 13° North  Level Estimated
Thu 10:20:00 AM 21.9739 100.7596 13° North  Level Estimated
Thu 10:21:00 AM 21.9739 100.7596 13° North  Level Estimated
Thu 10:22:00 AM 21.9739 100.7596 13° North  Level Estimated
Thu 10:23:00 AM 21.9739 100.7596 13° North  Level Estimated
Thu 10:24:00 AM 21.9739 100.7596 13° North  Level Estimated
Thu 10:25:00 AM 21.9739 100.7596 13° North  Level Estimated

Login

Don't have an account? Register now (free) for customized features, flight alerts, and more!